Time;durP1;ratioP1;P1;durP2;ratioP2;P2;SDS_P1;SDS_P2;PMS_P1;PMS_P2;Temp;Humidity;BMP_temperature;BMP_pressure;BME280_temperature;BME280_humidity;BME280_pressure;Samples;Min_cycle;Max_cycle;Signal;HPM_P1;HPM_P2
2021/04/05 00:02:03;;;;;;;63.57;25.40;;;;;;;0.96;75.65;100572.87;1804322;79;21783;-66
2021/04/05 00:04:36;;;;;;;56.92;21.65;;;;;;;1.04;75.77;100572.09;1804107;79;21177;-66
2021/04/05 00:07:10;;;;;;;43.28;16.25;;;;;;;1.11;75.86;100572.20;1804308;79;21649;-66
2021/04/05 00:09:45;;;;;;;37.15;17.15;;;;;;;1.15;75.98;100568.57;1803778;79;21268;-66
2021/04/05 00:12:18;;;;;;;39.35;17.60;;;;;;;1.17;76.08;100571.47;1804302;79;21855;-66
2021/04/05 00:14:51;;;;;;;66.27;18.60;;;;;;;1.22;76.28;100577.25;1804272;79;21771;-66
2021/04/05 00:17:24;;;;;;;46.80;19.93;;;;;;;1.28;76.46;100572.28;1804747;79;21248;-67
2021/04/05 00:19:57;;;;;;;82.10;25.43;;;;;;;1.31;76.48;100574.25;1803913;79;21723;-67
2021/04/05 00:22:30;;;;;;;68.78;23.18;;;;;;;1.36;76.51;100566.33;1804790;79;21236;-67
2021/04/05 00:25:03;;;;;;;51.10;21.83;;;;;;;1.38;76.32;100574.35;1803985;79;21798;-67
2021/04/05 00:27:37;;;;;;;59.50;17.92;;;;;;;1.40;76.20;100574.75;1804314;79;21347;-67
2021/04/05 00:30:17;;;;;;;;;;;;;;;1.43;76.17;100579.78;1806214;79;22095;-67
2021/04/05 00:32:50;;;;;;;76.60;23.98;;;;;;;1.44;76.12;100594.33;1802499;79;20581;-67
2021/04/05 00:35:26;;;;;;;56.63;19.90;;;;;;;1.41;76.03;100586.75;1804285;79;21264;-67
2021/04/05 00:37:59;;;;;;;76.80;20.50;;;;;;;1.43;75.92;100592.23;1803831;79;21133;-67
2021/04/05 00:40:49;;;;;;;92.47;26.30;;;;;;;1.41;75.75;100584.17;1803680;79;21736;-67
2021/04/05 00:43:24;;;;;;;47.88;19.52;;;;;;;1.37;75.45;100578.30;1804421;79;21763;-67
2021/04/05 00:45:57;;;;;;;44.80;16.45;;;;;;;1.30;75.46;100572.59;1780995;79;21764;-67
2021/04/05 00:48:30;;;;;;;29.37;13.63;;;;;;;1.30;75.41;100573.89;1804257;79;21253;-67
2021/04/05 00:51:18;;;;;;;29.32;14.07;;;;;;;1.27;75.27;100575.76;1803469;79;21276;-67
2021/04/05 00:53:52;;;;;;;50.83;16.07;;;;;;;1.21;75.11;100577.34;1804328;79;21244;-66
2021/04/05 00:56:26;;;;;;;43.33;14.65;;;;;;;1.19;75.05;100563.23;1806039;79;21228;-67
2021/04/05 00:59:00;;;;;;;29.72;15.18;;;;;;;1.18;75.06;100565.42;1812229;79;21268;-67
2021/04/05 01:01:33;;;;;;;33.03;15.73;;;;;;;1.21;75.16;100576.05;1811755;79;21153;-67
2021/04/05 01:04:06;;;;;;;32.13;14.75;;;;;;;1.24;75.27;100569.47;1811480;78;21802;-67
2021/04/05 01:06:40;;;;;;;41.25;13.90;;;;;;;1.25;75.17;100560.36;1811983;79;21826;-66
2021/04/05 01:09:14;;;;;;;62.40;19.60;;;;;;;1.20;75.17;100563.60;1812673;79;21174;-67
2021/04/05 01:11:48;;;;;;;39.98;18.37;;;;;;;1.19;75.28;100567.55;1811682;79;21842;-67
2021/04/05 01:14:21;;;;;;;76.20;24.03;;;;;;;1.20;75.40;100573.91;1813300;79;21244;-67
2021/04/05 01:16:55;;;;;;;33.20;16.25;;;;;;;1.23;75.43;100575.52;1811684;79;21137;-67
2021/04/05 01:19:28;;;;;;;46.65;16.57;;;;;;;1.23;75.09;100573.78;1812817;79;21193;-67
2021/04/05 01:22:01;;;;;;;48.00;15.97;;;;;;;1.18;74.84;100577.02;1811609;79;21318;-67
2021/04/05 01:24:35;;;;;;;64.47;19.30;;;;;;;1.15;74.80;100578.44;1813458;79;21247;-67
2021/04/05 01:27:09;;;;;;;44.53;17.07;;;;;;;1.12;74.86;100569.55;1780665;79;21751;-67
2021/04/05 01:29:41;;;;;;;67.60;14.75;;;;;;;1.10;74.92;100566.68;1812714;79;22015;-67
2021/04/05 01:32:14;;;;;;;43.28;14.83;;;;;;;1.11;75.02;100563.18;1811575;79;21311;-67
2021/04/05 01:34:48;;;;;;;28.50;12.17;;;;;;;1.11;75.20;100562.73;1813336;79;21167;-67
2021/04/05 01:37:21;;;;;;;32.98;13.95;;;;;;;1.15;75.29;100575.86;1811683;79;21145;-67
2021/04/05 01:39:54;;;;;;;38.42;16.05;;;;;;;1.18;75.27;100562.00;1812889;79;21307;-67
2021/04/05 01:42:27;;;;;;;45.50;14.07;;;;;;;1.20;75.25;100570.50;1811573;79;21208;-67
2021/04/05 01:45:00;;;;;;;52.88;17.48;;;;;;;1.20;75.18;100577.78;1782152;79;21802;-67
2021/04/05 01:47:35;;;;;;;48.68;21.15;;;;;;;1.18;74.94;100568.00;1811713;79;21684;-67
2021/04/05 01:50:08;;;;;;;;;;;;;;;1.17;74.93;100568.08;1815123;79;21181;-67
2021/04/05 01:52:43;;;;;;;30.77;13.32;;;;;;;1.17;74.98;100565.02;1811485;79;20160;-67
2021/04/05 01:55:18;;;;;;;26.40;13.88;;;;;;;1.14;74.96;100563.05;1812933;79;21283;-67
2021/04/05 01:57:51;;;;;;;37.38;13.32;;;;;;;1.11;74.82;100571.76;1811298;79;21268;-67
2021/04/05 02:00:28;;;;;;;55.30;12.45;;;;;;;1.09;74.92;100572.28;1810643;79;21326;-66
2021/04/05 02:03:10;;;;;;;38.92;12.55;;;;;;;1.11;75.08;100566.60;1811389;78;21243;-67
2021/04/05 02:05:50;;;;;;;27.45;12.28;;;;;;;1.14;75.24;100560.02;1813190;79;21774;-66
2021/04/05 02:08:27;;;;;;;20.35;11.60;;;;;;;1.19;75.37;100563.68;1812907;79;21247;-66
2021/04/05 02:11:04;;;;;;;19.65;11.75;;;;;;;1.21;75.48;100552.39;1812126;79;21295;-67
2021/04/05 02:13:37;;;;;;;46.83;11.70;;;;;;;1.26;75.48;100550.89;1809193;79;21267;-68
2021/04/05 02:16:15;;;;;;;33.95;12.23;;;;;;;1.29;75.49;100550.76;1812994;79;21137;-66
2021/04/05 02:18:55;;;;;;;26.52;11.97;;;;;;;1.29;75.36;100543.83;1783433;79;21125;-66
2021/04/05 02:21:29;;;;;;;24.52;12.18;;;;;;;1.29;75.30;100544.31;1811755;79;21200;-67
2021/04/05 02:24:05;;;;;;;25.12;11.45;;;;;;;1.30;75.32;100539.07;1813009;79;21248;-68
2021/04/05 02:26:38;;;;;;;44.85;11.40;;;;;;;1.29;75.26;100542.54;1813090;79;21275;-67
2021/04/05 02:29:11;;;;;;;38.37;16.33;;;;;;;1.29;75.08;100540.44;1813640;79;21283;-67
2021/04/05 02:31:45;;;;;;;37.03;11.12;;;;;;;1.28;75.16;100536.17;1811827;79;21347;-66
2021/04/05 02:34:18;;;;;;;23.47;8.93;;;;;;;1.30;75.31;100543.38;1812975;79;22141;-67
2021/04/05 02:36:51;;;;;;;30.32;12.37;;;;;;;1.26;75.06;100537.99;1812975;79;21278;-66
2021/04/05 02:39:25;;;;;;;31.42;10.30;;;;;;;1.23;74.99;100535.55;1813188;79;21763;-66
2021/04/05 02:41:58;;;;;;;28.57;10.97;;;;;;;1.22;75.13;100535.16;1811982;79;21276;-66
2021/04/05 02:44:33;;;;;;;38.67;11.55;;;;;;;1.24;75.32;100537.23;1812979;79;21546;-62
2021/04/05 02:47:06;;;;;;;41.13;12.45;;;;;;;1.27;75.36;100543.06;1812733;79;21172;-60
2021/04/05 02:49:41;;;;;;;30.65;11.00;;;;;;;1.29;75.53;100545.13;1812877;79;21243;-58
2021/04/05 02:52:14;;;;;;;35.15;10.30;;;;;;;1.32;75.49;100546.28;1811264;79;21176;-59
2021/04/05 02:54:47;;;;;;;18.57;8.83;;;;;;;1.33;75.32;100553.13;1813367;79;21247;-58
2021/04/05 02:57:20;;;;;;;42.15;9.93;;;;;;;1.34;75.11;100556.06;1812951;79;21271;-59
2021/04/05 02:59:54;;;;;;;18.98;9.43;;;;;;;1.30;75.06;100555.83;1812962;79;21859;-59
2021/04/05 03:02:27;;;;;;;23.77;9.70;;;;;;;1.31;75.06;100558.77;1804585;79;21263;-59
2021/04/05 03:05:01;;;;;;;39.92;9.38;;;;;;;1.31;74.87;100556.67;1804373;79;21767;-60
2021/04/05 03:07:35;;;;;;;21.75;9.10;;;;;;;1.29;74.86;100559.30;1781860;79;21810;-59
2021/04/05 03:10:10;;;;;;;20.50;9.55;;;;;;;1.31;74.80;100567.80;1804168;79;21173;-60
2021/04/05 03:12:45;;;;;;;26.87;9.43;;;;;;;1.30;74.46;100567.44;1780625;79;21340;-60
2021/04/05 03:15:19;;;;;;;17.75;9.33;;;;;;;1.24;74.17;100566.89;1804607;79;21772;-60
2021/04/05 03:17:56;;;;;;;31.97;10.90;;;;;;;1.20;74.13;100567.91;1804392;79;21843;-60
2021/04/05 03:20:33;;;;;;;17.05;8.80;;;;;;;1.15;73.96;100577.16;1804190;79;21145;-60
2021/04/05 03:23:06;;;;;;;37.85;15.68;;;;;;;1.09;73.90;100571.00;1802390;79;21859;-60
2021/04/05 03:25:39;;;;;;;18.00;8.37;;;;;;;1.07;74.07;100572.81;1804565;79;21228;-60
2021/04/05 03:28:12;;;;;;;16.77;7.25;;;;;;;1.07;74.07;100572.81;1803633;79;21886;-60
2021/04/05 03:30:53;;;;;;;30.43;9.05;;;;;;;1.09;74.25;100572.28;1805111;79;21796;-59
2021/04/05 03:33:31;;;;;;;28.95;9.38;;;;;;;1.12;74.18;100570.02;1803617;79;21326;-59
2021/04/05 03:36:36;;;;;;;44.98;8.30;;;;;;;1.12;74.17;100564.39;1804298;79;21264;-59
2021/04/05 03:39:09;;;;;;;;;;;;;;;1.12;73.99;100569.55;1793333;79;21133;-59
2021/04/05 03:42:01;;;;;;;31.57;8.98;;;;;;;1.12;73.94;100563.58;1804145;79;20228;-59
2021/04/05 03:45:00;;;;;;;27.87;9.25;;;;;;;1.12;73.94;100570.02;1803205;79;21846;-60
2021/04/05 03:47:58;;;;;;;21.70;9.88;;;;;;;1.16;73.86;100574.97;1804462;79;21260;-59
2021/04/05 03:50:44;;;;;;;16.62;8.75;;;;;;;1.11;73.62;100575.63;1804189;79;21260;-59
2021/04/05 03:53:37;;;;;;;31.60;7.25;;;;;;;1.12;73.92;100575.98;1791811;79;22088;-58
2021/04/05 03:56:22;;;;;;;43.28;8.83;;;;;;;1.22;73.93;100579.84;1804360;79;21773;-59
2021/04/05 03:58:58;;;;;;;44.60;9.63;;;;;;;1.29;73.59;100573.97;1803640;79;21145;-58
2021/04/05 04:01:33;;;;;;;30.15;8.43;;;;;;;1.32;73.54;100581.55;1803378;79;21165;-59
2021/04/05 04:04:12;;;;;;;19.80;7.13;;;;;;;1.32;73.46;100585.41;1799379;79;21581;-59
2021/04/05 04:06:52;;;;;;;22.00;6.15;;;;;;;1.33;73.42;100593.55;1800693;79;21244;-59
2021/04/05 04:09:18;;;;;;;14.87;6.60;;;;;;;1.37;73.49;100598.94;1799672;79;21995;-59
2021/04/05 04:11:50;;;;;;;;;;;;;;;1.38;73.49;100593.33;1802547;79;21181;-59
2021/04/05 04:14:23;;;;;;;17.27;6.72;;;;;;;1.46;73.64;100589.97;1777930;79;20205;-59
2021/04/05 04:16:55;;;;;;;17.73;6.15;;;;;;;1.56;73.46;100589.89;1804243;79;21303;-58
2021/04/05 04:19:29;;;;;;;11.30;5.72;;;;;;;1.62;73.18;100596.08;1803844;79;21795;-59
2021/04/05 04:22:02;;;;;;;12.73;6.08;;;;;;;1.69;73.10;100594.44;1804209;79;21149;-59
2021/04/05 04:24:38;;;;;;;8.53;5.90;;;;;;;1.79;72.89;100590.97;1803179;79;21889;-59
2021/04/05 04:27:16;;;;;;;23.38;9.63;;;;;;;1.85;72.52;100600.98;1802915;79;21467;-60
2021/04/05 04:29:57;;;;;;;24.12;8.90;;;;;;;1.89;72.45;100603.34;1803290;79;21283;-59
2021/04/05 04:32:30;;;;;;;32.25;8.78;;;;;;;1.89;72.23;100602.50;1804283;79;21244;-60
2021/04/05 04:35:04;;;;;;;24.67;7.60;;;;;;;1.88;72.43;100600.41;1803864;79;21267;-60
2021/04/05 04:37:41;;;;;;;11.63;6.78;;;;;;;1.98;72.79;100602.90;1804393;79;21267;-61
2021/04/05 04:40:15;;;;;;;17.35;7.60;;;;;;;2.12;72.72;100598.38;1803149;79;21284;-60
2021/04/05 04:42:49;;;;;;;21.30;8.05;;;;;;;2.22;72.26;100597.48;1803965;79;21311;-59
2021/04/05 04:45:23;;;;;;;27.65;7.35;;;;;;;2.32;71.98;100593.51;1775914;79;21307;-60
2021/04/05 04:47:56;;;;;;;20.95;8.50;;;;;;;2.42;71.81;100599.90;1789682;79;21150;-59
2021/04/05 04:50:30;;;;;;;29.45;11.05;;;;;;;2.52;71.63;100599.83;1768910;79;21324;-61
2021/04/05 04:57:13;;;;;;;16.42;9.75;;;;;;;2.71;71.25;100594.95;1768436;81;21150;-61
2021/04/05 05:04:20;;;;;;;26.82;9.55;;;;;;;3.02;71.47;100580.42;1767526;81;21273;-65
2021/04/05 05:07:02;;;;;;;24.63;9.45;;;;;;;3.31;71.39;100579.72;1766826;80;21317;-60
2021/04/05 05:09:36;;;;;;;46.65;11.60;;;;;;;3.48;70.78;100569.74;1766692;81;21218;-60
2021/04/05 05:12:10;;;;;;;30.83;10.83;;;;;;;3.58;70.48;100570.46;1768226;80;21389;-59
2021/04/05 05:14:43;;;;;;;;;;;;;;;3.66;70.68;100577.78;1770938;80;21622;-59
2021/04/05 05:21:06;;;;;;;39.63;8.93;;;;;;;3.82;69.75;100566.48;1762866;80;21932;-59
2021/04/05 05:27:53;;;;;;;30.15;11.00;;;;;;;3.98;68.99;100560.84;1756618;81;21171;-59
2021/04/05 05:30:28;;;;;;;20.62;11.93;;;;;;;4.08;69.21;100555.48;1752056;81;21313;-62
2021/04/05 05:33:05;;;;;;;45.98;14.07;;;;;;;4.11;69.29;100550.59;1756269;81;21356;-61
2021/04/05 05:35:38;;;;;;;43.92;14.90;;;;;;;4.24;69.19;100541.20;1791478;79;21566;-60
2021/04/05 05:38:12;;;;;;;32.93;15.53;;;;;;;4.37;68.77;100538.25;1799642;79;21310;-63
2021/04/05 05:40:45;;;;;;;37.10;15.80;;;;;;;4.47;68.58;100533.36;1760527;81;21614;-58
2021/04/05 05:43:41;;;;;;;68.92;13.43;;;;;;;4.63;68.36;100534.14;1730646;83;21449;-63
2021/04/05 05:46:27;;;;;;;29.52;16.37;;;;;;;4.84;68.01;100532.84;1795354;79;21382;-59
2021/04/05 05:57:40;;;;;;;36.68;17.55;;;;;;;5.39;66.24;100519.88;1702329;84;21497;-64
2021/04/05 06:00:23;;;;;;;35.65;17.45;;;;;;;5.40;65.44;100517.17;1702551;84;21270;-67
2021/04/05 06:03:36;;;;;;;33.45;15.28;;;;;;;5.44;65.91;100516.53;1702107;84;21499;-61
2021/04/05 06:06:19;;;;;;;23.87;13.60;;;;;;;5.56;66.14;100518.34;1745254;81;21498;-64
2021/04/05 06:09:23;;;;;;;35.08;17.73;;;;;;;5.74;65.92;100516.31;1764254;81;21188;-63
2021/04/05 06:12:33;;;;;;;38.67;20.48;;;;;;;5.97;65.78;100515.70;1767418;81;21197;-61
2021/04/05 06:15:23;;;;;;;38.45;21.12;;;;;;;6.24;65.70;100524.72;1766672;81;22102;-66
2021/04/05 06:22:35;;;;;;;44.23;23.22;;;;;;;6.55;64.08;100512.63;1744894;80;21204;-59
2021/04/05 06:25:29;;;;;;;45.98;25.52;;;;;;;6.61;64.07;100511.77;1730318;82;21256;-61
2021/04/05 06:28:11;;;;;;;51.25;30.00;;;;;;;6.75;64.04;100517.31;1731465;82;21312;-61
2021/04/05 06:30:59;;;;;;;61.77;28.47;;;;;;;6.89;64.23;100525.00;1744886;82;21248;-59
2021/04/05 06:33:38;;;;;;;47.55;26.35;;;;;;;7.02;64.07;100519.28;1732191;82;21331;-61
2021/04/05 06:36:41;;;;;;;51.80;28.87;;;;;;;7.11;63.38;100521.27;1731527;82;21448;-66
2021/04/05 06:39:27;;;;;;;84.67;41.35;;;;;;;7.22;63.65;100518.73;1731608;82;21356;-62
2021/04/05 06:42:47;;;;;;;65.00;31.77;;;;;;;7.48;63.33;100515.57;1730790;82;21311;-61
2021/04/05 06:45:50;;;;;;;52.05;28.12;;;;;;;7.66;62.61;100519.94;1730540;82;21188;-61
2021/04/05 06:49:04;;;;;;;64.65;33.85;;;;;;;7.86;62.21;100524.52;1761463;81;21288;-63
2021/04/05 06:52:09;;;;;;;61.80;32.03;;;;;;;8.10;61.71;100525.31;1756685;81;21689;-63
2021/04/05 06:55:10;;;;;;;63.15;34.85;;;;;;;8.24;60.99;100527.73;1762850;81;21292;-63
2021/04/05 06:57:53;;;;;;;63.40;36.70;;;;;;;8.31;60.37;100528.96;1762243;81;21323;-63
2021/04/05 07:00:34;;;;;;;74.07;41.50;;;;;;;8.41;60.28;100519.50;1763217;80;22130;-67
2021/04/05 07:03:27;;;;;;;56.68;33.13;;;;;;;8.61;60.08;100519.30;1754105;80;21252;-66
2021/04/05 07:06:36;;;;;;;58.68;30.60;;;;;;;8.93;60.00;100517.67;1755271;80;21312;-59
2021/04/05 07:09:48;;;;;;;35.78;24.32;;;;;;;9.29;59.69;100515.27;1766052;81;21303;-60
2021/04/05 07:12:38;;;;;;;45.83;26.02;;;;;;;9.63;58.48;100514.20;1765783;81;21181;-62
2021/04/05 07:15:34;;;;;;;39.58;23.15;;;;;;;9.83;57.57;100512.13;1746753;82;21302;-59
2021/04/05 07:18:50;;;;;;;38.65;24.90;;;;;;;10.01;57.52;100509.30;1745971;82;21187;-61
2021/04/05 07:21:42;;;;;;;35.75;22.50;;;;;;;10.18;56.79;100501.87;1746880;82;21322;-62
2021/04/05 07:24:38;;;;;;;39.10;26.17;;;;;;;10.13;56.94;100501.78;1747368;82;21290;-61
2021/04/05 07:27:33;;;;;;;38.13;23.32;;;;;;;10.20;56.97;100498.67;1738418;81;21860;-63
2021/04/05 07:30:16;;;;;;;36.25;21.97;;;;;;;10.28;56.83;100488.37;1769978;80;22157;-63
2021/04/05 07:33:11;;;;;;;34.43;21.35;;;;;;;10.27;56.86;100479.69;1776338;80;21216;-62
2021/04/05 07:36:28;;;;;;;26.50;18.77;;;;;;;10.79;56.94;100479.54;1775623;80;21224;-63
2021/04/05 07:39:36;;;;;;;29.52;20.00;;;;;;;11.56;55.43;100478.42;1775922;80;21349;-61
2021/04/05 07:42:25;;;;;;;32.42;20.30;;;;;;;12.37;53.58;100480.59;1776572;79;21334;-63
2021/04/05 07:45:24;;;;;;;32.67;21.52;;;;;;;12.93;52.14;100474.45;1777034;80;22127;-65
2021/04/05 07:48:04;;;;;;;28.40;18.75;;;;;;;13.62;51.50;100462.91;1756894;80;21589;-61
2021/04/05 07:51:21;;;;;;;27.30;16.70;;;;;;;14.37;49.60;100451.86;1769661;80;21378;-64
2021/04/05 07:54:06;;;;;;;31.52;23.22;;;;;;;14.84;47.86;100446.50;1774931;80;21649;-63
2021/04/05 07:56:57;;;;;;;33.65;25.77;;;;;;;15.13;46.59;100439.03;1774768;80;21346;-67
2021/04/05 08:00:10;;;;;;;45.48;35.63;;;;;;;15.40;46.01;100438.73;1769117;81;21181;-64
2021/04/05 08:03:03;;;;;;;41.05;29.32;;;;;;;15.88;45.10;100438.50;1711342;81;21461;-70
2021/04/05 08:05:50;;;;;;;23.92;17.77;;;;;;;16.46;44.31;100437.73;1768607;81;21621;-66
2021/04/05 08:08:54;;;;;;;25.77;18.17;;;;;;;17.02;43.20;100433.27;1770345;80;21369;-65
2021/04/05 08:11:45;;;;;;;28.83;20.45;;;;;;;17.49;41.82;100429.51;1774870;80;21212;-68
2021/04/05 08:14:59;;;;;;;25.20;18.67;;;;;;;17.98;39.92;100431.80;1745241;80;21220;-65
2021/04/05 08:18:20;;;;;;;24.05;17.15;;;;;;;18.11;38.83;100416.10;1776050;80;22069;-62
2021/04/05 08:21:16;;;;;;;32.23;21.20;;;;;;;17.87;38.57;100418.48;1774996;80;21350;-64
2021/04/05 08:24:12;;;;;;;27.45;17.30;;;;;;;17.52;39.01;100411.66;1774699;80;22008;-67
2021/04/05 08:27:08;;;;;;;27.85;18.95;;;;;;;17.21;39.68;100405.05;1774140;80;21255;-68
2021/04/05 08:29:52;;;;;;;27.52;18.55;;;;;;;16.97;40.41;100399.90;1768579;81;21201;-65
2021/04/05 08:36:55;;;;;;;19.70;13.80;;;;;;;16.63;41.65;100383.03;1776696;80;21165;-67
2021/04/05 08:40:02;;;;;;;13.30;9.33;;;;;;;16.82;41.32;100374.20;1774659;79;21315;-69
2021/04/05 08:42:57;;;;;;;10.32;8.25;;;;;;;16.95;39.79;100372.31;1774563;79;21176;-63
2021/04/05 08:45:58;;;;;;;13.50;8.68;;;;;;;16.87;39.24;100368.87;1775790;80;21359;-72
2021/04/05 08:48:35;;;;;;;12.85;8.58;;;;;;;16.77;39.68;100365.13;1775479;79;21326;-71
2021/04/05 08:51:25;;;;;;;10.80;7.00;;;;;;;16.74;39.66;100359.69;1766488;80;21569;-69
2021/04/05 08:54:00;;;;;;;17.60;10.98;;;;;;;16.62;39.31;100357.09;1766828;80;21189;-65
2021/04/05 08:56:46;;;;;;;11.33;8.90;;;;;;;16.32;39.56;100347.78;1767438;81;21378;-67
2021/04/05 08:59:38;;;;;;;11.10;8.13;;;;;;;16.14;39.80;100344.05;1766673;81;22077;-66
2021/04/05 09:02:27;;;;;;;10.60;7.80;;;;;;;15.92;40.19;100336.35;1764517;81;21185;-65
2021/04/05 09:05:00;;;;;;;9.78;6.83;;;;;;;15.97;39.52;100340.63;1729992;82;21347;-72
2021/04/05 09:08:02;;;;;;;8.58;6.28;;;;;;;16.01;38.77;100331.86;1699277;84;21329;-73
2021/04/05 09:10:50;;;;;;;10.18;5.92;;;;;;;15.94;37.61;100324.29;1725296;83;21310;-72
2021/04/05 09:13:27;;;;;;;36.25;20.25;;;;;;;15.74;37.69;100322.50;1758441;79;21268;-71
2021/04/05 09:16:17;;;;;;;19.73;10.53;;;;;;;15.42;38.11;100313.28;1757021;81;21178;-69
2021/04/05 09:19:23;;;;;;;11.18;7.45;;;;;;;15.13;38.73;100318.22;1758076;81;21487;-69
2021/04/05 09:26:49;;;;;;;10.28;5.75;;;;;;;14.56;39.29;100314.16;1758874;81;21140;-70
2021/04/05 09:33:53;;;;;;;6.00;4.72;;;;;;;13.92;40.60;100291.47;1761595;81;21300;-68
2021/04/05 09:36:33;;;;;;;7.05;4.12;;;;;;;13.53;41.10;100284.96;1757179;81;21387;-67
2021/04/05 09:39:43;;;;;;;5.12;3.75;;;;;;;13.55;41.26;100281.69;1758129;80;21390;-71
2021/04/05 09:42:24;;;;;;;5.75;3.72;;;;;;;13.47;40.91;100279.81;1758584;81;21612;-67
2021/04/05 09:45:16;;;;;;;7.47;4.10;;;;;;;13.26;41.00;100283.28;1757771;80;21216;-69
2021/04/05 09:48:26;;;;;;;5.45;3.52;;;;;;;12.90;41.15;100277.70;1757343;81;21343;-70
2021/04/05 09:51:10;;;;;;;7.70;4.10;;;;;;;12.53;42.00;100269.94;1757639;81;21435;-69
2021/04/05 09:54:08;;;;;;;9.70;3.50;;;;;;;12.15;42.97;100278.85;1759097;81;21629;-67
2021/04/05 09:56:45;;;;;;;9.15;4.45;;;;;;;11.84;43.79;100270.42;1757143;81;21331;-66
2021/04/05 09:59:21;;;;;;;5.65;4.15;;;;;;;11.62;44.38;100264.66;1757164;81;21220;-64
2021/04/05 10:06:05;;;;;;;12.03;3.83;;;;;;;11.45;45.06;100246.08;1758928;81;21423;-74
2021/04/05 10:08:38;;;;;;;6.40;4.30;;;;;;;11.37;45.46;100260.36;1759135;81;21481;-70
2021/04/05 10:19:35;;;;;;;8.23;3.33;;;;;;;11.61;45.03;100250.71;1759185;81;21232;-68
2021/04/05 10:22:20;;;;;;;9.85;3.50;;;;;;;11.63;44.34;100238.79;1759287;81;21307;-72
2021/04/05 10:24:58;;;;;;;4.15;2.83;;;;;;;11.72;44.08;100232.70;1758790;81;21311;-66
2021/04/05 10:27:31;;;;;;;4.50;2.80;;;;;;;11.86;43.74;100227.82;1758765;81;21320;-67
2021/04/05 10:30:05;;;;;;;6.20;2.80;;;;;;;12.01;43.17;100230.80;1759381;81;21356;-64
2021/04/05 10:32:41;;;;;;;10.30;5.10;;;;;;;12.16;42.90;100228.00;1760440;81;21614;-69
2021/04/05 10:35:16;;;;;;;4.90;2.92;;;;;;;12.12;42.76;100222.72;1712341;81;21327;-67
2021/04/05 10:37:50;;;;;;;3.15;2.30;;;;;;;12.09;43.02;100227.77;1758294;81;21320;-63
2021/04/05 10:40:23;;;;;;;5.97;3.45;;;;;;;12.13;42.38;100225.18;1758415;81;21444;-61
2021/04/05 10:43:03;;;;;;;;;;;;;;;12.15;42.41;100223.27;1760038;81;21205;-64
2021/04/05 10:45:35;;;;;;;3.83;2.45;;;;;;;12.15;42.06;100227.20;1758233;81;20295;-65
2021/04/05 10:48:14;;;;;;;4.30;2.80;;;;;;;12.11;41.86;100223.67;1757941;81;21378;-60
2021/04/05 10:50:59;;;;;;;3.72;2.70;;;;;;;12.19;41.92;100221.16;1758143;81;21804;-58
2021/04/05 10:53:36;;;;;;;3.80;2.12;;;;;;;12.33;41.98;100221.13;1753438;81;21392;-61
2021/04/05 10:56:12;;;;;;;91.08;34.15;;;;;;;12.31;41.55;100216.52;1757861;81;22197;-63
2021/04/05 10:58:56;;;;;;;16.32;7.03;;;;;;;12.26;41.81;100202.53;1757788;81;21197;-61
2021/04/05 11:01:33;;;;;;;12.43;4.80;;;;;;;12.35;41.81;100202.11;1758735;81;21645;-61
2021/04/05 11:04:06;;;;;;;6.20;3.92;;;;;;;12.45;41.40;100202.40;1757758;81;22045;-63
2021/04/05 11:06:39;;;;;;;8.35;3.17;;;;;;;12.55;41.05;100208.41;1757857;81;21260;-63
2021/04/05 11:09:13;;;;;;;5.95;2.90;;;;;;;12.65;40.77;100201.77;1757607;81;21181;-60
2021/04/05 11:11:54;;;;;;;7.45;2.87;;;;;;;12.77;40.67;100202.72;1757966;81;22089;-61
2021/04/05 11:14:29;;;;;;;6.80;2.60;;;;;;;12.90;40.37;100208.08;1758868;81;21939;-66
2021/04/05 11:17:03;;;;;;;4.85;2.55;;;;;;;12.79;40.00;100217.00;1757806;81;21204;-63
2021/04/05 11:19:49;;;;;;;9.33;4.08;;;;;;;12.56;40.24;100211.88;1736620;81;21303;-61
2021/04/05 11:22:21;;;;;;;4.33;2.95;;;;;;;12.49;40.72;100208.19;1757560;81;21465;-63
2021/04/05 11:25:08;;;;;;;4.92;2.52;;;;;;;12.51;40.92;100204.92;1757158;81;21299;-64
2021/04/05 11:27:50;;;;;;;4.85;2.62;;;;;;;12.52;41.15;100206.08;1743316;81;21315;-65
2021/04/05 11:30:25;;;;;;;11.93;4.53;;;;;;;12.60;41.49;100196.14;1760636;81;21312;-72
2021/04/05 11:32:58;;;;;;;10.10;5.50;;;;;;;12.68;41.21;100194.41;1759395;81;21248;-72
2021/04/05 11:35:33;;;;;;;5.03;3.30;;;;;;;12.73;40.59;100190.84;1759084;81;21354;-59
2021/04/05 11:38:20;;;;;;;6.80;4.08;;;;;;;12.75;40.61;100188.08;1758757;81;21193;-65
2021/04/05 11:41:01;;;;;;;12.40;5.75;;;;;;;12.73;41.05;100188.69;1758873;81;21491;-65
2021/04/05 11:43:39;;;;;;;39.88;17.25;;;;;;;12.75;41.09;100186.25;1758835;81;22041;-64
2021/04/05 11:46:13;;;;;;;11.78;6.45;;;;;;;12.76;40.44;100189.23;1757427;80;21378;-67
2021/04/05 11:48:50;;;;;;;19.05;10.58;;;;;;;12.74;40.48;100189.87;1754020;81;21339;-69
2021/04/05 11:51:26;;;;;;;15.72;7.97;;;;;;;12.64;40.95;100184.35;1730083;81;21486;-65
2021/04/05 11:54:02;;;;;;;4.90;3.47;;;;;;;12.53;41.23;100178.86;1759080;81;21217;-73
2021/04/05 11:56:35;;;;;;;5.53;2.98;;;;;;;12.37;40.98;100181.81;1765020;80;21287;-61
2021/04/05 11:59:17;;;;;;;;;;;;;;;12.18;41.38;100177.50;1725841;80;21473;-66
2021/04/05 12:02:01;;;;;;;10.20;3.77;;;;;;;12.08;41.54;100171.00;1757177;81;20315;-67
2021/04/05 12:04:46;;;;;;;7.58;2.85;;;;;;;12.04;41.75;100169.66;1766811;81;21338;-67
2021/04/05 12:07:25;;;;;;;8.45;2.42;;;;;;;12.01;41.85;100179.13;1758912;80;22057;-62
2021/04/05 12:10:06;;;;;;;7.75;2.60;;;;;;;11.99;41.49;100171.89;1765740;81;21209;-62
2021/04/05 12:12:44;;;;;;;2.30;2.00;;;;;;;11.98;41.68;100173.36;1756813;80;21252;-60
2021/04/05 12:15:18;;;;;;;3.45;2.42;;;;;;;11.96;41.75;100164.33;1736341;82;21469;-65
2021/04/05 12:17:54;;;;;;;3.47;2.77;;;;;;;12.01;41.99;100171.76;1673882;85;21602;-70
2021/04/05 12:20:31;;;;;;;5.00;2.55;;;;;;;11.94;42.20;100166.25;1735497;82;21994;-61
2021/04/05 12:23:10;;;;;;;15.08;8.18;;;;;;;11.89;42.14;100148.81;1665403;85;21541;-66
2021/04/05 12:25:46;;;;;;;8.83;3.20;;;;;;;11.94;42.43;100149.20;1734977;82;21316;-74
2021/04/05 12:28:19;;;;;;;13.62;5.20;;;;;;;11.98;42.00;100149.75;1735498;82;21315;-59
2021/04/05 12:30:55;;;;;;;7.20;3.20;;;;;;;11.93;41.84;100144.94;1737025;82;21319;-59
2021/04/05 12:33:33;;;;;;;4.53;2.67;;;;;;;11.87;42.34;100142.09;1668352;85;21201;-66
2021/04/05 12:36:07;;;;;;;3.70;2.05;;;;;;;11.72;43.03;100141.75;1696787;84;21248;-69
2021/04/05 12:38:40;;;;;;;;;;;;;;;11.66;42.90;100132.28;1694373;84;21492;-64
2021/04/05 12:41:13;;;;;;;4.72;2.40;;;;;;;11.66;42.90;100133.11;1692843;84;20328;-67
2021/04/05 12:43:47;;;;;;;;;;;;;;;11.69;42.80;100128.92;1693841;84;21190;-63
2021/04/05 12:46:19;;;;;;;14.93;5.47;;;;;;;11.78;42.86;100115.41;1692818;84;20657;-62
2021/04/05 12:49:01;;;;;;;17.05;5.70;;;;;;;11.88;42.90;100118.80;1691576;84;22192;-64
2021/04/05 12:51:34;;;;;;;7.85;3.70;;;;;;;11.98;42.10;100124.82;1692672;84;21190;-69
2021/04/05 12:54:08;;;;;;;7.45;2.45;;;;;;;11.93;41.79;100117.88;1702868;83;22067;-61
2021/04/05 12:56:41;;;;;;;13.32;3.33;;;;;;;11.88;41.98;100116.18;1692824;84;21339;-60
2021/04/05 12:59:14;;;;;;;9.80;3.02;;;;;;;11.93;41.88;100119.19;1693433;84;21599;-61
2021/04/05 13:01:54;;;;;;;6.58;3.08;;;;;;;11.95;41.63;100123.31;1649575;84;21182;-60
2021/04/05 13:04:29;;;;;;;8.28;2.98;;;;;;;11.97;41.46;100119.22;1691468;84;21535;-63
2021/04/05 13:07:13;;;;;;;;;;;;;;;11.96;41.62;100116.28;1695287;84;22020;-59
2021/04/05 13:09:50;;;;;;;12.15;5.03;;;;;;;11.98;41.43;100118.27;1680017;84;20686;-63
2021/04/05 13:12:52;;;;;;;7.55;4.15;;;;;;;11.86;41.36;100120.27;1691507;84;21209;-64
2021/04/05 13:15:33;;;;;;;5.25;3.72;;;;;;;11.68;41.78;100108.91;1679785;84;22142;-60
2021/04/05 13:18:18;;;;;;;51.55;23.32;;;;;;;11.59;41.90;100106.30;1692400;84;21320;-59
2021/04/05 13:20:58;;;;;;;66.40;29.80;;;;;;;11.48;42.42;100109.96;1691893;84;21356;-66
2021/04/05 13:23:36;;;;;;;12.95;6.75;;;;;;;11.38;42.37;100102.14;1692375;84;21526;-60